Time;durP1;ratioP1;P1;durP2;ratioP2;P2;SDS_P1;SDS_P2;PMS_P1;PMS_P2;Temp;Humidity;BMP_temperature;BMP_pressure;BME280_temperature;BME280_humidity;BME280_pressure;Samples;Min_cycle;Max_cycle;Signal;HPM_P1;HPM_P2
2022/08/15 00:00:41;;;;;;;6.95;3.75;;;21.50;76.30;;;;;;5067223;28;20032;-83
2022/08/15 00:03:27;;;;;;;7.53;3.80;;;21.40;76.10;;;;;;5066769;28;20392;-83
2022/08/15 00:06:04;;;;;;;5.22;3.60;;;21.50;76.60;;;;;;5046848;28;20033;-83
2022/08/15 00:08:33;;;;;;;4.95;3.58;;;21.40;77.00;;;;;;5048794;28;20509;-83
2022/08/15 00:11:04;;;;;;;5.95;4.07;;;21.40;77.30;;;;;;5048437;28;20029;-83
2022/08/15 00:13:30;;;;;;;4.80;3.90;;;21.40;77.70;;;;;;5071061;28;20028;-84
2022/08/15 00:15:56;;;;;;;6.53;3.55;;;21.30;77.90;;;;;;5088885;28;20119;-85
2022/08/15 00:18:25;;;;;;;5.05;3.90;;;21.30;78.30;;;;;;5084015;28;20028;-84
2022/08/15 00:20:52;;;;;;;5.13;3.42;;;21.20;78.80;;;;;;5069208;28;20024;-85
2022/08/15 00:23:26;;;;;;;4.82;3.85;;;21.30;79.10;;;;;;5069176;28;20047;-85
2022/08/15 00:25:55;;;;;;;5.57;3.78;;;21.20;79.30;;;;;;5069093;28;20032;-85
2022/08/15 00:28:21;;;;;;;4.13;3.33;;;21.30;79.80;;;;;;5068790;28;20028;-85
2022/08/15 00:30:47;;;;;;;4.50;3.25;;;21.20;80.20;;;;;;5071179;28;20033;-82
2022/08/15 00:33:15;;;;;;;5.38;3.80;;;21.10;80.80;;;;;;5069859;28;20048;-81
2022/08/15 00:35:47;;;;;;;3.80;3.00;;;21.10;81.30;;;;;;5069280;28;20035;-82
2022/08/15 00:38:19;;;;;;;4.60;3.67;;;21.10;81.70;;;;;;5069703;28;20492;-82
2022/08/15 00:43:41;;;;;;;5.30;4.20;;;21.00;82.80;;;;;;5071087;28;20076;-83
2022/08/15 00:46:09;;;;;;;6.65;4.13;;;20.90;83.30;;;;;;5069209;28;20116;-82
2022/08/15 00:48:41;;;;;;;6.15;3.97;;;20.90;83.60;;;;;;5070405;28;20099;-83
2022/08/15 00:51:15;;;;;;;4.53;3.42;;;20.90;84.00;;;;;;5070457;28;20024;-82
2022/08/15 00:53:45;;;;;;;4.88;3.90;;;20.90;84.40;;;;;;5069532;28;20055;-84
2022/08/15 00:56:13;;;;;;;4.70;3.33;;;21.00;84.80;;;;;;5070573;28;20060;-83
2022/08/15 00:58:41;;;;;;;5.85;3.60;;;21.00;85.20;;;;;;5069723;28;20021;-82
2022/08/15 01:01:10;;;;;;;5.90;3.20;;;20.90;85.80;;;;;;5069020;28;20115;-83
2022/08/15 01:03:40;;;;;;;4.45;3.58;;;20.90;86.10;;;;;;5069310;28;20031;-82
2022/08/15 01:06:07;;;;;;;4.00;3.25;;;20.90;86.60;;;;;;5069401;28;20151;-83
2022/08/15 01:08:35;;;;;;;5.18;3.70;;;20.80;86.90;;;;;;5070978;28;20020;-84
2022/08/15 01:11:13;;;;;;;5.15;3.60;;;20.80;87.50;;;;;;5071451;28;20036;-84
2022/08/15 01:13:40;;;;;;;5.93;3.97;;;20.80;88.10;;;;;;5086854;28;20419;-85
2022/08/15 01:16:06;;;;;;;10.15;4.30;;;20.80;88.70;;;;;;5092218;28;20025;-84
2022/08/15 01:18:31;;;;;;;4.28;3.75;;;20.80;89.30;;;;;;5090372;28;20024;-84
2022/08/15 01:21:04;;;;;;;7.07;3.90;;;20.70;90.00;;;;;;5077168;28;20031;-84
2022/08/15 01:23:48;;;;;;;11.10;3.58;;;20.70;90.40;;;;;;5071917;28;20052;-84
2022/08/15 01:26:15;;;;;;;6.93;3.97;;;20.70;90.80;;;;;;5070696;28;20432;-84
2022/08/15 01:28:44;;;;;;;8.18;3.70;;;20.60;91.20;;;;;;5069977;28;20078;-84
2022/08/15 01:31:17;;;;;;;4.20;3.60;;;20.60;91.70;;;;;;5068987;28;20142;-83
2022/08/15 01:33:49;;;;;;;9.80;3.88;;;20.60;92.00;;;;;;5069753;28;20023;-84
2022/08/15 01:36:16;;;;;;;8.52;4.20;;;20.50;92.30;;;;;;5069894;28;20035;-83
2022/08/15 01:38:48;;;;;;;5.95;4.35;;;20.50;92.90;;;;;;5070545;28;20397;-83
2022/08/15 01:41:29;;;;;;;5.60;4.00;;;20.40;93.40;;;;;;5070256;28;20119;-86
2022/08/15 01:44:08;;;;;;;5.10;3.58;;;20.30;94.10;;;;;;5071747;28;20028;-85
2022/08/15 01:46:40;;;;;;;4.15;3.35;;;20.30;94.70;;;;;;5069337;28;20036;-81
2022/08/15 01:49:13;;;;;;;10.68;3.75;;;20.30;95.00;;;;;;5069602;28;20103;-81
2022/08/15 01:51:39;;;;;;;5.28;3.75;;;20.40;95.30;;;;;;5068934;28;20036;-83
2022/08/15 01:54:08;;;;;;;5.00;3.80;;;20.40;95.80;;;;;;5069644;28;20103;-84
2022/08/15 01:56:38;;;;;;;6.13;4.10;;;20.40;96.10;;;;;;5070204;28;20017;-82
2022/08/15 01:59:06;;;;;;;7.07;3.90;;;20.50;96.80;;;;;;5068629;28;20030;-82
2022/08/15 02:01:37;;;;;;;4.72;4.00;;;20.60;96.70;;;;;;5068321;28;20024;-83
2022/08/15 02:04:03;;;;;;;6.05;3.50;;;20.50;96.80;;;;;;5067420;28;20375;-82
2022/08/15 02:06:29;;;;;;;4.80;3.70;;;20.50;96.90;;;;;;5068066;28;20137;-83
2022/08/15 02:08:56;;;;;;;6.15;3.97;;;20.60;97.00;;;;;;5069962;28;20503;-84
2022/08/15 02:11:26;;;;;;;4.25;3.28;;;20.60;97.20;;;;;;5070252;28;20393;-84
2022/08/15 02:13:54;;;;;;;5.57;4.40;;;20.50;97.40;;;;;;5088424;28;20032;-84
2022/08/15 02:16:22;;;;;;;6.45;4.20;;;20.40;97.70;;;;;;5089879;28;20040;-84
2022/08/15 02:18:48;;;;;;;8.68;3.95;;;20.40;98.10;;;;;;5090752;28;20030;-84
2022/08/15 02:21:14;;;;;;;5.43;4.13;;;20.40;98.40;;;;;;5090029;28;20024;-84
2022/08/15 02:23:40;;;;;;;10.50;4.20;;;20.40;98.70;;;;;;5089842;28;20051;-85
2022/08/15 02:26:07;;;;;;;6.80;3.60;;;20.40;98.80;;;;;;5090574;28;20040;-85
2022/08/15 02:28:34;;;;;;;5.00;3.75;;;20.40;98.90;;;;;;5091949;28;20021;-85
2022/08/15 02:31:00;;;;;;;5.25;3.90;;;20.40;99.00;;;;;;5091158;28;20579;-85
2022/08/15 02:33:27;;;;;;;4.80;3.60;;;20.40;99.20;;;;;;5088611;28;20120;-85
2022/08/15 02:35:52;;;;;;;5.13;3.95;;;20.40;99.40;;;;;;5087825;28;20099;-85
2022/08/15 02:38:18;;;;;;;6.45;4.03;;;20.40;99.50;;;;;;5090309;28;20476;-85
2022/08/15 02:40:44;;;;;;;6.25;4.07;;;20.30;99.60;;;;;;5091847;28;20050;-86
2022/08/15 02:43:12;;;;;;;5.72;4.05;;;20.30;99.80;;;;;;5090982;28;20691;-85
2022/08/15 02:45:39;;;;;;;7.05;3.92;;;20.30;99.90;;;;;;5090218;28;20041;-85
2022/08/15 02:48:10;;;;;;;6.10;4.60;;;20.30;99.90;;;;;;5090638;28;20060;-85
2022/08/15 02:50:37;;;;;;;8.10;4.25;;;20.20;99.90;;;;;;5090704;28;20028;-85
2022/08/15 02:53:11;;;;;;;5.28;4.05;;;20.20;99.90;;;;;;5091170;28;20070;-85
2022/08/15 02:55:39;;;;;;;4.97;4.20;;;20.20;99.90;;;;;;5090733;28;20024;-85
2022/08/15 02:58:05;;;;;;;5.10;4.22;;;20.10;99.90;;;;;;5091880;28;20492;-86
2022/08/15 03:00:31;;;;;;;5.88;4.03;;;20.10;99.90;;;;;;5090979;28;20028;-84
2022/08/15 03:03:00;;;;;;;5.80;3.60;;;20.00;99.90;;;;;;5087207;28;20706;-82
2022/08/15 03:05:29;;;;;;;6.32;4.07;;;20.10;99.90;;;;;;5087883;28;20039;-81
2022/08/15 03:07:55;;;;;;;5.88;3.85;;;20.00;99.90;;;;;;5086095;28;20035;-81
2022/08/15 03:10:21;;;;;;;5.72;4.45;;;19.90;99.90;;;;;;5088080;28;20036;-83
2022/08/15 03:12:54;;;;;;;6.05;4.05;;;20.00;99.90;;;;;;5085449;28;20025;-84
2022/08/15 03:15:45;;;;;;;6.60;4.70;;;19.90;99.90;;;;;;5068803;28;20032;-85
2022/08/15 03:18:12;;;;;;;8.50;4.75;;;19.90;99.90;;;;;;5067246;28;20508;-83
2022/08/15 03:20:39;;;;;;;5.50;4.00;;;19.80;99.90;;;;;;5066457;28;20059;-83
2022/08/15 03:23:07;;;;;;;6.10;4.20;;;19.80;99.90;;;;;;5066630;28;20055;-82
2022/08/15 03:25:41;;;;;;;6.07;4.28;;;19.80;99.90;;;;;;5069375;28;20036;-84
2022/08/15 03:28:07;;;;;;;6.22;4.38;;;19.80;99.90;;;;;;5068607;28;20202;-83
2022/08/15 03:30:33;;;;;;;4.95;4.30;;;19.80;99.90;;;;;;5067887;28;20119;-82
2022/08/15 03:32:59;;;;;;;5.05;4.47;;;19.80;99.90;;;;;;5067561;28;20032;-83
2022/08/15 03:35:28;;;;;;;5.15;4.00;;;19.70;99.90;;;;;;5068222;28;20020;-83
2022/08/15 03:37:56;;;;;;;6.70;5.15;;;19.70;99.90;;;;;;5067208;28;20025;-84
2022/08/15 03:40:22;;;;;;;10.20;4.60;;;19.60;99.90;;;;;;5069973;28;20112;-83
2022/08/15 03:43:00;;;;;;;7.88;4.50;;;19.70;99.90;;;;;;5069288;28;20028;-83
2022/08/15 03:45:27;;;;;;;8.30;4.47;;;19.70;99.90;;;;;;5066726;28;20047;-81
2022/08/15 03:47:53;;;;;;;5.63;4.78;;;19.70;99.90;;;;;;5065997;28;20102;-82
2022/08/15 03:50:20;;;;;;;8.07;4.65;;;19.80;99.90;;;;;;5066217;28;20028;-82
2022/08/15 03:52:57;;;;;;;8.70;4.65;;;19.80;99.90;;;;;;5066060;28;20044;-82
2022/08/15 03:55:24;;;;;;;13.25;4.55;;;19.80;99.90;;;;;;5066135;28;20028;-82
2022/08/15 03:57:51;;;;;;;9.95;4.38;;;19.80;99.90;;;;;;5066129;28;20033;-81
2022/08/15 04:00:20;;;;;;;6.25;4.85;;;19.90;99.90;;;;;;5066991;28;20031;-81
2022/08/15 04:02:46;;;;;;;4.95;3.85;;;19.80;99.90;;;;;;5065935;28;20127;-80
2022/08/15 04:05:11;;;;;;;6.07;4.65;;;19.80;99.90;;;;;;5067765;28;20476;-81
2022/08/15 04:07:37;;;;;;;7.45;5.05;;;19.80;99.90;;;;;;5069813;28;20031;-82
2022/08/15 04:10:06;;;;;;;9.45;4.60;;;19.90;99.90;;;;;;5069651;28;20028;-81
2022/08/15 04:12:35;;;;;;;10.57;5.25;;;20.00;99.90;;;;;;5069708;28;20036;-81
2022/08/15 04:15:03;;;;;;;12.32;4.57;;;20.00;99.90;;;;;;5070124;28;20039;-82
2022/08/15 04:17:29;;;;;;;7.63;5.38;;;20.10;99.90;;;;;;5070098;28;20037;-80
2022/08/15 04:19:55;;;;;;;8.52;5.82;;;20.10;99.90;;;;;;5071987;28;20150;-80
2022/08/15 04:22:34;;;;;;;14.57;5.57;;;20.20;99.90;;;;;;5069876;28;20034;-81
2022/08/15 04:25:16;;;;;;;10.15;4.85;;;20.30;99.90;;;;;;5069117;28;20420;-81
2022/08/15 04:27:42;;;;;;;6.07;4.78;;;20.40;99.90;;;;;;5070051;28;20024;-82
2022/08/15 04:30:10;;;;;;;7.28;4.57;;;20.50;99.90;;;;;;5070931;28;20693;-83
2022/08/15 04:32:37;;;;;;;7.88;4.10;;;20.70;99.90;;;;;;5072245;28;20022;-83
2022/08/15 04:35:03;;;;;;;7.70;4.13;;;20.70;99.90;;;;;;5072415;28;20032;-83
2022/08/15 04:37:29;;;;;;;13.40;4.63;;;20.90;99.90;;;;;;5071155;28;20044;-82
2022/08/15 04:39:56;;;;;;;7.68;4.80;;;20.90;99.90;;;;;;5070407;28;20025;-82
2022/08/15 04:42:24;;;;;;;6.03;4.28;;;21.00;99.90;;;;;;5070209;28;20423;-82
2022/08/15 04:44:51;;;;;;;8.63;5.47;;;21.10;99.90;;;;;;5070189;28;20047;-83
2022/08/15 04:47:17;;;;;;;9.90;4.65;;;21.20;99.90;;;;;;5070125;28;20145;-84
2022/08/15 04:49:44;;;;;;;7.90;4.80;;;21.30;99.90;;;;;;5071998;28;20108;-83
2022/08/15 04:52:13;;;;;;;8.10;4.72;;;21.40;99.90;;;;;;5071451;28;20028;-86
2022/08/15 04:54:39;;;;;;;5.93;4.95;;;21.60;99.90;;;;;;5070982;28;20032;-84
2022/08/15 04:57:06;;;;;;;6.80;4.70;;;21.70;99.90;;;;;;5070500;28;20221;-85
2022/08/15 04:59:32;;;;;;;7.15;5.07;;;21.90;99.90;;;;;;5071843;28;20113;-85
2022/08/15 05:01:58;;;;;;;5.85;4.78;;;22.10;99.90;;;;;;5072365;28;20063;-85
2022/08/15 05:04:24;;;;;;;6.22;4.45;;;22.40;99.90;;;;;;5071194;28;20024;-83
2022/08/15 05:06:50;;;;;;;7.20;4.78;;;22.60;99.90;;;;;;5069123;28;20558;-83
2022/08/15 05:09:16;;;;;;;9.80;5.72;;;22.80;99.90;;;;;;5068741;28;20507;-82
2022/08/15 05:11:41;;;;;;;7.45;4.75;;;23.00;99.90;;;;;;5073242;28;20660;-82
2022/08/15 05:14:07;;;;;;;9.80;5.22;;;23.10;99.90;;;;;;5089154;28;20020;-83
2022/08/15 05:16:33;;;;;;;9.38;4.75;;;23.40;99.90;;;;;;5088727;28;20879;-83
2022/08/15 05:18:59;;;;;;;6.57;5.22;;;23.70;99.50;;;;;;5088802;28;20496;-84
2022/08/15 05:21:26;;;;;;;7.53;4.63;;;24.10;98.90;;;;;;5070771;28;20032;-83
2022/08/15 05:23:52;;;;;;;9.60;4.38;;;24.50;98.10;;;;;;5068245;28;20045;-82
2022/08/15 05:26:18;;;;;;;12.40;5.53;;;25.00;97.40;;;;;;5069841;28;20048;-83
2022/08/15 05:28:43;;;;;;;12.05;5.07;;;25.40;96.40;;;;;;5068191;28;20035;-84
2022/08/15 05:31:10;;;;;;;6.10;4.22;;;25.70;95.80;;;;;;5068693;28;20437;-82
2022/08/15 05:33:37;;;;;;;8.60;4.43;;;25.90;95.20;;;;;;5068672;28;20099;-84
2022/08/15 05:36:04;;;;;;;7.75;4.80;;;26.10;94.70;;;;;;5068307;28;20682;-83
2022/08/15 05:38:35;;;;;;;6.38;4.53;;;26.30;94.20;;;;;;5069941;28;20028;-83
2022/08/15 05:41:18;;;;;;;8.23;4.25;;;26.40;93.60;;;;;;5068928;28;20036;-84
2022/08/15 05:44:02;;;;;;;13.32;4.72;;;26.50;92.90;;;;;;5068376;28;20020;-83
2022/08/15 05:46:39;;;;;;;10.80;5.07;;;26.70;92.40;;;;;;5068746;28;20489;-84
2022/08/15 05:49:04;;;;;;;11.50;5.03;;;26.80;92.00;;;;;;5066697;28;20027;-83
2022/08/15 05:52:04;;;;;;;14.40;4.95;;;27.00;91.80;;;;;;5068038;28;20028;-83
2022/08/15 05:54:41;;;;;;;6.50;5.18;;;27.40;91.10;;;;;;5068136;28;20324;-83
2022/08/15 05:57:17;;;;;;;8.73;5.65;;;27.80;90.50;;;;;;5068026;28;20052;-83
2022/08/15 05:59:50;;;;;;;9.18;4.90;;;28.50;87.80;;;;;;5069526;28;20029;-84
2022/08/15 06:02:46;;;;;;;7.43;5.15;;;29.20;85.00;;;;;;5068344;28;20497;-82
2022/08/15 06:05:22;;;;;;;10.50;5.78;;;30.00;79.80;;;;;;5061237;28;20535;-83
2022/08/15 06:07:49;;;;;;;8.10;5.13;;;30.50;77.90;;;;;;5067475;28;20043;-82
2022/08/15 06:10:36;;;;;;;7.95;5.53;;;31.20;74.40;;;;;;5067323;28;20390;-83
2022/08/15 06:13:24;;;;;;;7.57;5.28;;;31.60;71.40;;;;;;5066755;28;20020;-85
2022/08/15 06:16:06;;;;;;;5.75;4.55;;;31.90;67.80;;;;;;5067335;28;20515;-83
2022/08/15 06:18:34;;;;;;;7.07;4.32;;;32.40;65.80;;;;;;5067337;28;20450;-85
2022/08/15 06:21:18;;;;;;;8.40;5.35;;;32.80;63.80;;;;;;5066914;28;20025;-84
2022/08/15 06:24:07;;;;;;;12.60;4.75;;;33.30;61.30;;;;;;5066211;28;20056;-84
2022/08/15 06:27:00;;;;;;;10.35;5.22;;;33.80;59.60;;;;;;5066031;28;20437;-82
2022/08/15 06:29:28;;;;;;;8.05;5.10;;;34.20;57.20;;;;;;5066375;28;20086;-82
2022/08/15 06:32:07;;;;;;;8.02;4.82;;;34.60;56.70;;;;;;5067098;28;20034;-82
2022/08/15 06:34:48;;;;;;;9.20;6.07;;;35.10;54.60;;;;;;5067203;28;20032;-82
2022/08/15 06:37:47;;;;;;;9.48;5.85;;;35.40;52.40;;;;;;5065125;28;20097;-83
2022/08/15 06:40:36;;;;;;;8.25;4.93;;;36.00;51.00;;;;;;5065535;28;20035;-82
2022/08/15 06:43:02;;;;;;;9.68;6.13;;;36.00;50.00;;;;;;5065947;28;20032;-83
2022/08/15 06:45:33;;;;;;;13.73;4.65;;;36.20;49.70;;;;;;5084378;28;20408;-83
2022/08/15 06:48:07;;;;;;;15.10;5.25;;;36.40;48.80;;;;;;5085999;28;20024;-82
2022/08/15 06:50:54;;;;;;;10.43;4.70;;;36.50;48.00;;;;;;5087402;28;20024;-83
2022/08/15 06:53:25;;;;;;;10.00;5.07;;;36.70;46.90;;;;;;5068164;28;20039;-83
2022/08/15 06:55:57;;;;;;;7.88;5.57;;;36.60;46.40;;;;;;5063341;28;20087;-83
2022/08/15 06:58:49;;;;;;;9.32;4.85;;;36.30;46.90;;;;;;5065517;28;20111;-83
2022/08/15 07:01:47;;;;;;;7.63;4.97;;;36.60;46.60;;;;;;5066420;28;20029;-83
2022/08/15 07:04:37;;;;;;;6.97;5.15;;;36.80;46.00;;;;;;5065296;28;20047;-82
2022/08/15 07:07:11;;;;;;;11.52;6.15;;;37.20;45.30;;;;;;5066557;28;20051;-83
2022/08/15 07:09:45;;;;;;;13.35;5.55;;;37.20;44.50;;;;;;5053012;28;20043;-83
2022/08/15 07:12:33;;;;;;;9.82;4.85;;;37.20;44.70;;;;;;5048204;28;20048;-81
2022/08/15 07:15:03;;;;;;;11.00;5.68;;;37.20;44.70;;;;;;5065221;28;20033;-81
2022/08/15 07:17:45;;;;;;;8.02;5.28;;;37.20;44.90;;;;;;5065504;28;20493;-81
2022/08/15 07:20:11;;;;;;;46.38;8.15;;;37.30;44.40;;;;;;5064699;28;20028;-81
2022/08/15 07:22:40;;;;;;;40.17;6.70;;;37.30;44.20;;;;;;5065537;28;20035;-81
2022/08/15 07:25:18;;;;;;;18.08;5.45;;;37.20;43.80;;;;;;5065166;28;20048;-81
2022/08/15 07:27:58;;;;;;;11.23;5.38;;;37.40;43.30;;;;;;5066546;28;20031;-81
2022/08/15 07:30:47;;;;;;;8.38;4.25;;;37.60;43.20;;;;;;5066674;28;20054;-81
2022/08/15 07:33:49;;;;;;;8.20;5.93;;;37.80;42.50;;;;;;5064742;28;20123;-81
2022/08/15 07:36:30;;;;;;;9.52;4.95;;;37.80;42.40;;;;;;5024112;28;20036;-82
2022/08/15 07:38:57;;;;;;;6.70;5.20;;;38.00;42.10;;;;;;5065251;28;20078;-80
2022/08/15 07:41:32;;;;;;;6.72;5.28;;;38.10;42.00;;;;;;5064101;28;20077;-80
2022/08/15 07:44:15;;;;;;;7.70;4.57;;;38.20;41.80;;;;;;5065031;28;20123;-81
2022/08/15 07:46:50;;;;;;;7.03;4.80;;;38.70;40.90;;;;;;5062877;28;20684;-81
2022/08/15 07:49:25;;;;;;;6.68;4.60;;;38.70;41.00;;;;;;5065045;28;20508;-81
2022/08/15 07:52:01;;;;;;;8.82;5.00;;;38.90;40.20;;;;;;5066256;28;20062;-81
2022/08/15 07:54:29;;;;;;;5.80;4.15;;;39.20;40.00;;;;;;5066364;28;20104;-82
2022/08/15 07:56:58;;;;;;;101.93;91.13;;;39.20;39.40;;;;;;5064269;28;20551;-81
2022/08/15 07:59:35;;;;;;;11.77;7.20;;;39.20;38.90;;;;;;5066422;28;20112;-82
2022/08/15 08:02:09;;;;;;;8.30;5.45;;;39.10;39.00;;;;;;5064622;28;20032;-82
2022/08/15 08:04:36;;;;;;;9.48;5.25;;;39.20;39.00;;;;;;5064868;28;20024;-81
2022/08/15 08:07:27;;;;;;;7.57;5.40;;;39.30;38.60;;;;;;5064761;28;20073;-80
2022/08/15 08:10:01;;;;;;;5.78;4.55;;;39.50;38.10;;;;;;5054363;28;20056;-81
2022/08/15 08:12:54;;;;;;;7.03;4.93;;;39.50;38.00;;;;;;5045932;28;20059;-81
2022/08/15 08:15:20;;;;;;;6.53;5.07;;;39.70;37.40;;;;;;5061287;28;20276;-81
2022/08/15 08:17:49;;;;;;;8.55;4.70;;;39.80;37.50;;;;;;5062210;28;20052;-81
2022/08/15 08:20:46;;;;;;;6.40;4.80;;;39.90;37.40;;;;;;5066073;28;20024;-81
2022/08/15 08:23:47;;;;;;;7.65;4.40;;;40.10;36.30;;;;;;5058245;28;20033;-81
2022/08/15 08:26:15;;;;;;;8.63;4.95;;;40.20;36.50;;;;;;5019852;28;20044;-81
2022/08/15 08:28:49;;;;;;;6.13;4.25;;;40.30;36.10;;;;;;5064798;28;20029;-80
2022/08/15 08:31:23;;;;;;;6.07;4.95;;;40.20;36.20;;;;;;5063180;28;20114;-81
2022/08/15 08:34:05;;;;;;;6.53;4.60;;;40.20;36.30;;;;;;5086754;28;20028;-81
2022/08/15 08:36:58;;;;;;;8.20;4.40;;;40.40;35.70;;;;;;5058932;28;20436;-81
2022/08/15 08:39:42;;;;;;;10.88;4.55;;;40.30;35.20;;;;;;5050979;28;20055;-81
2022/08/15 08:42:21;;;;;;;7.80;4.30;;;40.30;35.30;;;;;;5065217;28;20473;-81
2022/08/15 08:45:12;;;;;;;7.78;4.85;;;40.60;35.30;;;;;;5060971;28;20064;-81
2022/08/15 08:48:04;;;;;;;6.78;4.70;;;40.80;34.40;;;;;;5044631;28;20033;-80
2022/08/15 08:50:51;;;;;;;6.72;4.68;;;40.70;34.70;;;;;;5045213;28;20302;-82
2022/08/15 08:53:29;;;;;;;8.52;4.50;;;40.70;34.20;;;;;;5066646;28;20031;-81
2022/08/15 08:56:16;;;;;;;11.65;5.47;;;40.80;34.10;;;;;;5067909;28;20028;-82
2022/08/15 08:58:57;;;;;;;6.00;3.97;;;40.90;34.30;;;;;;5069237;28;20035;-80
2022/08/15 09:01:26;;;;;;;7.03;4.43;;;41.20;33.80;;;;;;5068490;28;20107;-81
2022/08/15 09:04:03;;;;;;;8.30;4.65;;;41.20;33.80;;;;;;5069122;28;20335;-81
2022/08/15 09:06:36;;;;;;;6.18;4.35;;;40.90;33.40;;;;;;5069213;28;20052;-81
2022/08/15 09:09:34;;;;;;;6.07;4.00;;;40.60;33.40;;;;;;5067362;28;20457;-82
2022/08/15 09:14:52;;;;;;;10.68;3.55;;;39.80;32.70;;;;;;5069316;28;20120;-81
2022/08/15 09:17:20;;;;;;;5.38;4.13;;;39.10;34.30;;;;;;5067510;28;20029;-82
2022/08/15 09:19:53;;;;;;;5.53;4.10;;;38.90;35.10;;;;;;5068280;28;20104;-80
2022/08/15 09:22:19;;;;;;;4.68;4.20;;;39.20;34.80;;;;;;5065749;28;20060;-81
2022/08/15 09:24:45;;;;;;;6.65;4.53;;;39.50;35.30;;;;;;5068430;28;20158;-81
2022/08/15 09:27:40;;;;;;;8.25;4.50;;;39.50;34.60;;;;;;5064907;28;20365;-81
2022/08/15 09:30:12;;;;;;;10.88;4.68;;;39.80;34.20;;;;;;5067535;28;20039;-81
2022/08/15 09:32:46;;;;;;;6.72;4.60;;;39.40;34.50;;;;;;5081477;28;20408;-82
2022/08/15 09:35:29;;;;;;;6.95;4.43;;;39.10;34.30;;;;;;5065271;28;20035;-82
2022/08/15 09:38:19;;;;;;;4.32;3.90;;;39.30;34.30;;;;;;5068759;28;20025;-82
2022/08/15 09:41:20;;;;;;;8.32;4.55;;;39.30;34.40;;;;;;5066287;28;20028;-82
2022/08/15 09:44:01;;;;;;;5.22;4.10;;;39.90;33.30;;;;;;5066781;28;20111;-82
2022/08/15 09:46:45;;;;;;;5.35;4.40;;;39.90;33.30;;;;;;5067663;28;20068;-82
2022/08/15 09:49:48;;;;;;;6.13;4.25;;;40.00;33.00;;;;;;5067387;28;20090;-81
2022/08/15 09:52:35;;;;;;;5.45;4.03;;;40.40;32.50;;;;;;5071940;28;20607;-81
2022/08/15 09:55:20;;;;;;;11.73;4.30;;;40.40;32.10;;;;;;5059003;28;20029;-82
2022/08/15 09:57:52;;;;;;;4.53;3.72;;;40.30;32.20;;;;;;5055709;28;20067;-81
2022/08/15 10:00:44;;;;;;;6.82;3.85;;;39.80;32.70;;;;;;5066322;28;20696;-81
2022/08/15 10:03:44;;;;;;;5.57;3.58;;;39.90;32.80;;;;;;5015707;28;20110;-82
2022/08/15 10:06:23;;;;;;;5.68;3.75;;;40.30;32.00;;;;;;5071817;28;20459;-81
2022/08/15 10:08:52;;;;;;;10.43;4.05;;;40.10;31.40;;;;;;5068824;28;20043;-80
2022/08/15 10:11:32;;;;;;;4.68;3.67;;;39.40;32.20;;;;;;5073234;28;20044;-81
2022/08/15 10:14:06;;;;;;;5.88;3.65;;;38.80;32.90;;;;;;5047073;28;20041;-80
2022/08/15 10:16:40;;;;;;;4.22;3.83;;;38.40;33.00;;;;;;5041790;28;20045;-80
2022/08/15 10:19:29;;;;;;;5.20;3.35;;;37.90;33.70;;;;;;5045505;28;20052;-81
2022/08/15 10:21:56;;;;;;;7.95;4.55;;;37.30;33.80;;;;;;5039238;28;20469;-81
2022/08/15 10:24:28;;;;;;;5.80;4.00;;;36.60;34.40;;;;;;5047320;28;20084;-81
2022/08/15 10:27:22;;;;;;;4.88;3.65;;;35.90;35.70;;;;;;5049513;28;20077;-81
2022/08/15 10:29:52;;;;;;;4.63;3.70;;;35.20;37.10;;;;;;5046542;28;20038;-82
2022/08/15 10:32:29;;;;;;;8.30;3.88;;;35.00;37.20;;;;;;5053062;28;20033;-82
2022/08/15 10:35:21;;;;;;;7.60;4.15;;;34.90;37.00;;;;;;5063214;28;20338;-82
2022/08/15 10:37:53;;;;;;;6.07;3.72;;;34.80;37.00;;;;;;5054775;28;20044;-84
2022/08/15 10:40:20;;;;;;;4.60;3.42;;;34.90;36.90;;;;;;5061384;28;20048;-82
2022/08/15 10:43:01;;;;;;;9.88;3.80;;;35.00;36.70;;;;;;5064060;28;20032;-82
2022/08/15 10:45:29;;;;;;;5.65;4.28;;;35.00;37.20;;;;;;5065325;28;20106;-82
2022/08/15 10:48:09;;;;;;;4.65;4.05;;;34.80;37.00;;;;;;5064863;28;20044;-82
2022/08/15 10:50:42;;;;;;;6.90;3.80;;;34.60;37.90;;;;;;5066477;28;20052;-82
2022/08/15 10:53:30;;;;;;;5.57;4.03;;;34.50;37.90;;;;;;5067155;28;20060;-83
2022/08/15 10:56:08;;;;;;;4.65;3.78;;;34.50;37.80;;;;;;5065061;28;20047;-82
2022/08/15 10:58:34;;;;;;;6.40;3.80;;;34.60;37.40;;;;;;5067038;28;20046;-82
2022/08/15 11:01:20;;;;;;;3.88;3.50;;;34.50;37.20;;;;;;5067004;28;20029;-82
2022/08/15 11:03:55;;;;;;;4.05;3.55;;;34.40;37.10;;;;;;5065622;28;20028;-83
2022/08/15 11:06:23;;;;;;;8.55;3.28;;;34.60;37.20;;;;;;5067139;28;20036;-81
2022/08/15 11:09:28;;;;;;;6.72;4.00;;;34.90;37.60;;;;;;5066979;28;20020;-82
2022/08/15 11:12:05;;;;;;;11.02;3.85;;;34.60;37.70;;;;;;4968876;28;20239;-82
2022/08/15 11:14:38;;;;;;;9.32;3.85;;;34.20;39.00;;;;;;5052301;28;20041;-83
2022/08/15 11:17:05;;;;;;;5.03;4.32;;;34.10;38.70;;;;;;5065562;28;20033;-81
2022/08/15 11:19:42;;;;;;;4.38;3.95;;;33.90;39.50;;;;;;5065664;28;20024;-81
2022/08/15 11:22:18;;;;;;;4.47;3.60;;;33.70;39.50;;;;;;5065540;28;20086;-82
2022/08/15 11:25:00;;;;;;;5.47;3.92;;;33.70;39.30;;;;;;5066835;28;20410;-81
2022/08/15 11:27:27;;;;;;;5.97;3.97;;;33.80;38.50;;;;;;5065240;28;20672;-81
2022/08/15 11:29:57;;;;;;;5.30;3.97;;;33.70;37.70;;;;;;5065638;28;20031;-82
2022/08/15 11:32:27;;;;;;;4.47;3.80;;;33.60;38.10;;;;;;5065682;28;20028;-82
2022/08/15 11:34:53;;;;;;;5.00;3.50;;;33.50;38.50;;;;;;5066391;28;20127;-82
2022/08/15 11:37:21;;;;;;;5.10;3.38;;;33.50;38.70;;;;;;5084987;28;20024;-81
2022/08/15 11:40:04;;;;;;;7.65;3.55;;;33.40;38.60;;;;;;5085824;28;20042;-83
2022/08/15 11:42:36;;;;;;;13.77;4.85;;;33.30;38.60;;;;;;5085819;28;20024;-81
2022/08/15 11:45:36;;;;;;;6.53;3.45;;;33.30;39.10;;;;;;5085249;28;20123;-81
2022/08/15 11:48:11;;;;;;;7.55;3.53;;;33.30;39.60;;;;;;5071253;28;20044;-82
2022/08/15 11:50:53;;;;;;;5.07;3.65;;;33.30;39.00;;;;;;5085545;28;20085;-82
2022/08/15 11:53:19;;;;;;;11.10;4.60;;;33.20;38.60;;;;;;5086843;28;20099;-82
2022/08/15 11:55:46;;;;;;;21.52;4.45;;;33.20;39.00;;;;;;5085648;28;20197;-81
2022/08/15 11:58:12;;;;;;;7.45;3.90;;;33.20;39.00;;;;;;5085388;28;20036;-82
2022/08/15 12:00:38;;;;;;;6.18;3.65;;;33.20;38.90;;;;;;5086244;28;20388;-82
2022/08/15 12:03:32;;;;;;;5.38;3.45;;;32.90;40.50;;;;;;5085505;28;20024;-83
2022/08/15 12:06:13;;;;;;;8.60;3.42;;;32.50;41.90;;;;;;5085345;28;20134;-81
2022/08/15 12:08:42;;;;;;;6.70;3.50;;;31.90;43.30;;;;;;5086243;28;20031;-84
2022/08/15 12:11:14;;;;;;;5.65;3.20;;;31.60;43.60;;;;;;5085797;28;20400;-83
2022/08/15 12:13:52;;;;;;;13.85;4.00;;;31.40;43.90;;;;;;5072230;28;20021;-84
2022/08/15 12:16:26;;;;;;;13.38;4.20;;;31.20;44.70;;;;;;5065232;28;20467;-84
2022/08/15 12:18:52;;;;;;;6.03;3.47;;;30.90;46.10;;;;;;5065315;28;20025;-83
2022/08/15 12:21:18;;;;;;;17.48;3.85;;;30.50;49.60;;;;;;5067453;28;20417;-82
2022/08/15 12:23:57;;;;;;;14.85;5.03;;;29.70;52.10;;;;;;5065670;28;20532;-81
2022/08/15 12:26:28;;;;;;;24.70;6.95;;;28.90;56.20;;;;;;5069240;28;20131;-83
2022/08/15 12:28:57;;;;;;;16.45;7.40;;;28.00;63.70;;;;;;5073660;28;20025;-87
2022/08/15 12:31:36;;;;;;;12.52;6.60;;;26.70;72.70;;;;;;5091983;28;20039;-86
2022/08/15 12:34:25;;;;;;;19.67;6.82;;;25.80;85.30;;;;;;5081504;28;20073;-87
2022/08/15 12:36:51;;;;;;;10.30;6.47;;;25.20;93.50;;;;;;5078786;28;20504;-86
2022/08/15 12:39:19;;;;;;;8.55;5.95;;;24.70;99.90;;;;;;5075613;28;20028;-87
2022/08/15 12:41:48;;;;;;;10.45;6.13;;;24.50;99.90;;;;;;5075226;28;20056;-86
2022/08/15 12:44:24;;;;;;;14.38;6.53;;;24.60;99.90;;;;;;5072834;28;20549;-85
2022/08/15 12:46:50;;;;;;;;;;;24.80;99.90;;;;;;5073724;28;20032;-85
2022/08/15 12:49:16;;;;;;;9.20;5.90;;;25.00;99.90;;;;;;5066059;28;20385;-85
2022/08/15 12:51:42;;;;;;;6.70;5.55;;;25.20;99.90;;;;;;5053891;28;20045;-84
2022/08/15 12:54:08;;;;;;;11.43;5.95;;;25.40;99.90;;;;;;5051132;28;20021;-83
2022/08/15 12:56:34;;;;;;;7.85;5.40;;;25.60;99.90;;;;;;5063217;28;20393;-83
2022/08/15 12:59:03;;;;;;;8.43;5.63;;;25.80;99.90;;;;;;5071004;28;20044;-84
2022/08/15 13:01:32;;;;;;;8.13;6.22;;;26.10;99.90;;;;;;5072017;28;20117;-82
2022/08/15 13:04:01;;;;;;;15.88;6.97;;;26.40;99.90;;;;;;5069407;28;20031;-82
2022/08/15 13:06:49;;;;;;;16.23;6.10;;;26.70;99.90;;;;;;5070717;28;20063;-85
2022/08/15 13:09:17;;;;;;;10.77;6.50;;;26.80;99.90;;;;;;5070701;28;20027;-85
2022/08/15 13:11:44;;;;;;;11.35;6.13;;;26.90;99.90;;;;;;5075520;28;20019;-85
2022/08/15 13:14:11;;;;;;;9.70;6.20;;;26.90;99.90;;;;;;5090464;28;20024;-83
2022/08/15 13:16:38;;;;;;;9.05;6.32;;;26.90;99.90;;;;;;5090546;28;20770;-86
2022/08/15 13:19:05;;;;;;;10.00;6.28;;;26.80;99.90;;;;;;5091340;28;20047;-85
2022/08/15 13:24:16;;;;;;;14.70;6.15;;;26.80;99.90;;;;;;5072035;28;20070;-86
2022/08/15 13:26:43;;;;;;;8.18;5.43;;;26.90;99.90;;;;;;5070285;28;20037;-84